sensor_id;sensor_type;location;lat;lon;timestamp;temperature;humidity
19039;DHT22;9652;49.014;12.052;2024-03-17T00:01:42;9.80;76.50
19039;DHT22;9652;49.014;12.052;2024-03-17T00:04:08;9.80;76.50
19039;DHT22;9652;49.014;12.052;2024-03-17T00:06:37;9.80;76.50
19039;DHT22;9652;49.014;12.052;2024-03-17T00:09:03;9.70;76.40
19039;DHT22;9652;49.014;12.052;2024-03-17T00:11:32;9.70;76.50
19039;DHT22;9652;49.014;12.052;2024-03-17T00:13:58;9.60;76.40
19039;DHT22;9652;49.014;12.052;2024-03-17T00:16:26;9.60;76.40
19039;DHT22;9652;49.014;12.052;2024-03-17T00:18:53;9.60;76.40
19039;DHT22;9652;49.014;12.052;2024-03-17T00:21:21;9.50;76.30
19039;DHT22;9652;49.014;12.052;2024-03-17T00:23:48;9.50;76.30
19039;DHT22;9652;49.014;12.052;2024-03-17T00:26:16;9.40;76.30
19039;DHT22;9652;49.014;12.052;2024-03-17T00:28:42;9.40;76.30
19039;DHT22;9652;49.014;12.052;2024-03-17T00:31:12;9.50;76.40
19039;DHT22;9652;49.014;12.052;2024-03-17T00:33:40;9.30;76.40
19039;DHT22;9652;49.014;12.052;2024-03-17T00:36:07;9.50;76.50
19039;DHT22;9652;49.014;12.052;2024-03-17T00:38:33;9.30;76.50
19039;DHT22;9652;49.014;12.052;2024-03-17T00:41:04;9.20;76.50
19039;DHT22;9652;49.014;12.052;2024-03-17T00:43:30;9.20;76.80
19039;DHT22;9652;49.014;12.052;2024-03-17T00:45:57;9.20;76.80
19039;DHT22;9652;49.014;12.052;2024-03-17T00:48:24;9.20;77.00
19039;DHT22;9652;49.014;12.052;2024-03-17T00:50:55;9.10;77.00
19039;DHT22;9652;49.014;12.052;2024-03-17T00:53:22;9.10;77.20
19039;DHT22;9652;49.014;12.052;2024-03-17T00:55:52;9.10;77.00
19039;DHT22;9652;49.014;12.052;2024-03-17T00:58:20;9.10;77.10
19039;DHT22;9652;49.014;12.052;2024-03-17T01:00:47;9.20;77.20
19039;DHT22;9652;49.014;12.052;2024-03-17T01:03:14;9.00;77.10
19039;DHT22;9652;49.014;12.052;2024-03-17T01:05:41;9.00;77.30
19039;DHT22;9652;49.014;12.052;2024-03-17T01:08:08;9.10;78.40
19039;DHT22;9652;49.014;12.052;2024-03-17T01:10:37;9.20;77.90
19039;DHT22;9652;49.014;12.052;2024-03-17T01:13:05;9.00;78.20
19039;DHT22;9652;49.014;12.052;2024-03-17T01:15:35;9.00;78.40
19039;DHT22;9652;49.014;12.052;2024-03-17T01:18:04;9.00;78.60
19039;DHT22;9652;49.014;12.052;2024-03-17T01:20:31;9.10;78.70
19039;DHT22;9652;49.014;12.052;2024-03-17T01:22:59;9.10;78.50
19039;DHT22;9652;49.014;12.052;2024-03-17T01:25:25;9.10;78.20
19039;DHT22;9652;49.014;12.052;2024-03-17T01:27:53;9.10;78.00
19039;DHT22;9652;49.014;12.052;2024-03-17T01:30:20;9.10;77.80
19039;DHT22;9652;49.014;12.052;2024-03-17T01:32:48;9.10;77.70
19039;DHT22;9652;49.014;12.052;2024-03-17T01:35:15;9.10;77.60
19039;DHT22;9652;49.014;12.052;2024-03-17T01:37:42;9.00;77.70
19039;DHT22;9652;49.014;12.052;2024-03-17T01:40:10;9.00;77.70
19039;DHT22;9652;49.014;12.052;2024-03-17T01:42:37;9.00;77.50
19039;DHT22;9652;49.014;12.052;2024-03-17T01:45:23;9.00;77.50
19039;DHT22;9652;49.014;12.052;2024-03-17T01:47:54;8.90;77.40
19039;DHT22;9652;49.014;12.052;2024-03-17T01:50:25;8.90;77.30
19039;DHT22;9652;49.014;12.052;2024-03-17T01:52:53;8.90;77.40
19039;DHT22;9652;49.014;12.052;2024-03-17T01:55:25;8.90;77.60
19039;DHT22;9652;49.014;12.052;2024-03-17T01:57:53;8.90;77.80
19039;DHT22;9652;49.014;12.052;2024-03-17T02:00:21;8.90;77.90
19039;DHT22;9652;49.014;12.052;2024-03-17T02:02:48;8.90;77.80
19039;DHT22;9652;49.014;12.052;2024-03-17T02:05:18;8.90;77.70
19039;DHT22;9652;49.014;12.052;2024-03-17T02:07:44;8.90;77.50
19039;DHT22;9652;49.014;12.052;2024-03-17T02:10:11;8.80;77.20
19039;DHT22;9652;49.014;12.052;2024-03-17T02:12:38;8.80;76.90
19039;DHT22;9652;49.014;12.052;2024-03-17T02:15:06;8.80;76.70
19039;DHT22;9652;49.014;12.052;2024-03-17T02:17:33;8.80;76.70
19039;DHT22;9652;49.014;12.052;2024-03-17T02:20:00;8.70;76.70
19039;DHT22;9652;49.014;12.052;2024-03-17T02:22:28;8.70;77.00
19039;DHT22;9652;49.014;12.052;2024-03-17T02:24:55;8.70;77.40
19039;DHT22;9652;49.014;12.052;2024-03-17T02:27:21;8.70;77.90
19039;DHT22;9652;49.014;12.052;2024-03-17T02:29:49;8.70;78.30
19039;DHT22;9652;49.014;12.052;2024-03-17T02:32:15;8.80;78.60
19039;DHT22;9652;49.014;12.052;2024-03-17T02:34:43;8.70;78.70
19039;DHT22;9652;49.014;12.052;2024-03-17T02:37:10;8.80;78.90
19039;DHT22;9652;49.014;12.052;2024-03-17T02:39:38;8.90;79.10
19039;DHT22;9652;49.014;12.052;2024-03-17T02:42:05;8.90;79.00
19039;DHT22;9652;49.014;12.052;2024-03-17T02:44:35;8.90;78.90
19039;DHT22;9652;49.014;12.052;2024-03-17T02:47:05;8.90;78.90
19039;DHT22;9652;49.014;12.052;2024-03-17T02:49:34;9.00;78.80
19039;DHT22;9652;49.014;12.052;2024-03-17T02:52:03;8.90;78.30
19039;DHT22;9652;49.014;12.052;2024-03-17T02:54:31;9.00;78.00
19039;DHT22;9652;49.014;12.052;2024-03-17T02:57:01;8.90;77.60
19039;DHT22;9652;49.014;12.052;2024-03-17T02:59:29;8.90;77.20
19039;DHT22;9652;49.014;12.052;2024-03-17T03:01:56;8.90;77.00
19039;DHT22;9652;49.014;12.052;2024-03-17T03:04:24;8.90;77.00
19039;DHT22;9652;49.014;12.052;2024-03-17T03:06:52;8.80;76.70
19039;DHT22;9652;49.014;12.052;2024-03-17T03:09:19;8.80;76.70
19039;DHT22;9652;49.014;12.052;2024-03-17T03:11:51;8.80;76.50
19039;DHT22;9652;49.014;12.052;2024-03-17T03:14:20;8.80;76.40
19039;DHT22;9652;49.014;12.052;2024-03-17T03:16:48;8.70;76.30
19039;DHT22;9652;49.014;12.052;2024-03-17T03:19:15;8.60;76.20
19039;DHT22;9652;49.014;12.052;2024-03-17T03:21:44;8.60;76.20
19039;DHT22;9652;49.014;12.052;2024-03-17T03:24:13;8.50;76.10
19039;DHT22;9652;49.014;12.052;2024-03-17T03:26:41;8.50;76.10
19039;DHT22;9652;49.014;12.052;2024-03-17T03:29:09;8.40;76.10
19039;DHT22;9652;49.014;12.052;2024-03-17T03:31:37;8.40;76.10
19039;DHT22;9652;49.014;12.052;2024-03-17T03:34:05;8.30;76.10
19039;DHT22;9652;49.014;12.052;2024-03-17T03:36:34;8.30;76.10
19039;DHT22;9652;49.014;12.052;2024-03-17T03:39:02;8.30;76.10
19039;DHT22;9652;49.014;12.052;2024-03-17T03:41:31;8.20;76.00
19039;DHT22;9652;49.014;12.052;2024-03-17T03:43:59;8.10;76.00
19039;DHT22;9652;49.014;12.052;2024-03-17T03:46:26;8.10;76.10
19039;DHT22;9652;49.014;12.052;2024-03-17T03:48:55;8.10;76.00
19039;DHT22;9652;49.014;12.052;2024-03-17T03:51:22;8.00;76.00
19039;DHT22;9652;49.014;12.052;2024-03-17T03:53:50;7.90;75.90
19039;DHT22;9652;49.014;12.052;2024-03-17T03:56:18;7.90;76.00
19039;DHT22;9652;49.014;12.052;2024-03-17T03:58:46;7.90;76.00
19039;DHT22;9652;49.014;12.052;2024-03-17T04:01:13;7.90;76.10
19039;DHT22;9652;49.014;12.052;2024-03-17T04:03:47;7.90;76.30
19039;DHT22;9652;49.014;12.052;2024-03-17T04:06:16;7.80;76.50
19039;DHT22;9652;49.014;12.052;2024-03-17T04:08:43;7.80;76.50
19039;DHT22;9652;49.014;12.052;2024-03-17T04:11:10;7.90;76.60
19039;DHT22;9652;49.014;12.052;2024-03-17T04:13:38;7.80;76.50
19039;DHT22;9652;49.014;12.052;2024-03-17T04:16:06;7.80;76.50
19039;DHT22;9652;49.014;12.052;2024-03-17T04:18:34;7.70;76.40
19039;DHT22;9652;49.014;12.052;2024-03-17T04:21:02;7.70;76.40
19039;DHT22;9652;49.014;12.052;2024-03-17T04:23:32;7.80;76.70
19039;DHT22;9652;49.014;12.052;2024-03-17T04:26:00;7.50;77.00
19039;DHT22;9652;49.014;12.052;2024-03-17T04:28:29;7.70;77.60
19039;DHT22;9652;49.014;12.052;2024-03-17T04:31:03;7.70;78.10
19039;DHT22;9652;49.014;12.052;2024-03-17T04:33:32;7.70;78.60
19039;DHT22;9652;49.014;12.052;2024-03-17T04:35:59;7.80;78.80
19039;DHT22;9652;49.014;12.052;2024-03-17T04:38:27;7.90;79.00
19039;DHT22;9652;49.014;12.052;2024-03-17T04:40:56;7.90;79.10
19039;DHT22;9652;49.014;12.052;2024-03-17T04:43:30;8.00;79.20
19039;DHT22;9652;49.014;12.052;2024-03-17T04:46:02;8.00;79.20
19039;DHT22;9652;49.014;12.052;2024-03-17T04:48:32;8.10;79.40
19039;DHT22;9652;49.014;12.052;2024-03-17T04:50:59;8.10;79.40
19039;DHT22;9652;49.014;12.052;2024-03-17T04:53:27;8.20;79.40
19039;DHT22;9652;49.014;12.052;2024-03-17T04:56:00;8.30;79.30
19039;DHT22;9652;49.014;12.052;2024-03-17T04:58:30;8.30;79.90
19039;DHT22;9652;49.014;12.052;2024-03-17T05:00:57;8.30;79.00
19039;DHT22;9652;49.014;12.052;2024-03-17T05:03:29;8.30;78.90
19039;DHT22;9652;49.014;12.052;2024-03-17T05:05:59;8.20;78.80
19039;DHT22;9652;49.014;12.052;2024-03-17T05:08:27;8.30;78.90
19039;DHT22;9652;49.014;12.052;2024-03-17T05:11:00;8.40;79.00
19039;DHT22;9652;49.014;12.052;2024-03-17T05:13:31;8.40;78.90
19039;DHT22;9652;49.014;12.052;2024-03-17T05:15:59;8.40;78.90
19039;DHT22;9652;49.014;12.052;2024-03-17T05:18:27;8.50;78.90
19039;DHT22;9652;49.014;12.052;2024-03-17T05:20:58;8.60;78.90
19039;DHT22;9652;49.014;12.052;2024-03-17T05:23:27;8.60;78.80
19039;DHT22;9652;49.014;12.052;2024-03-17T05:25:55;8.60;78.90
19039;DHT22;9652;49.014;12.052;2024-03-17T05:28:25;8.50;78.90
19039;DHT22;9652;49.014;12.052;2024-03-17T05:30:54;8.60;79.00
19039;DHT22;9652;49.014;12.052;2024-03-17T05:33:24;8.60;78.90
19039;DHT22;9652;49.014;12.052;2024-03-17T05:35:52;8.60;79.00
19039;DHT22;9652;49.014;12.052;2024-03-17T05:38:20;8.70;79.00
19039;DHT22;9652;49.014;12.052;2024-03-17T05:40:55;8.70;78.90
19039;DHT22;9652;49.014;12.052;2024-03-17T05:43:25;8.70;78.80
19039;DHT22;9652;49.014;12.052;2024-03-17T05:45:54;8.80;78.90
19039;DHT22;9652;49.014;12.052;2024-03-17T05:48:24;8.80;78.90
19039;DHT22;9652;49.014;12.052;2024-03-17T05:50:51;8.80;78.70
19039;DHT22;9652;49.014;12.052;2024-03-17T05:53:18;8.80;78.80
19039;DHT22;9652;49.014;12.052;2024-03-17T05:55:46;8.90;79.10
19039;DHT22;9652;49.014;12.052;2024-03-17T05:58:13;8.90;79.00
19039;DHT22;9652;49.014;12.052;2024-03-17T06:00:42;8.90;79.00
19039;DHT22;9652;49.014;12.052;2024-03-17T06:03:09;9.00;78.90
19039;DHT22;9652;49.014;12.052;2024-03-17T06:05:38;9.00;78.90
19039;DHT22;9652;49.014;12.052;2024-03-17T06:08:07;9.10;79.00
19039;DHT22;9652;49.014;12.052;2024-03-17T06:10:36;9.10;79.00
19039;DHT22;9652;49.014;12.052;2024-03-17T06:13:06;9.10;79.00
19039;DHT22;9652;49.014;12.052;2024-03-17T06:15:33;9.20;79.10
19039;DHT22;9652;49.014;12.052;2024-03-17T06:18:02;9.30;79.00
19039;DHT22;9652;49.014;12.052;2024-03-17T06:20:30;9.30;79.00
19039;DHT22;9652;49.014;12.052;2024-03-17T06:22:57;9.40;79.10
19039;DHT22;9652;49.014;12.052;2024-03-17T06:25:24;9.40;78.90
19039;DHT22;9652;49.014;12.052;2024-03-17T06:27:52;9.50;79.10
19039;DHT22;9652;49.014;12.052;2024-03-17T06:30:20;9.50;79.20
19039;DHT22;9652;49.014;12.052;2024-03-17T06:32:47;9.60;79.10
19039;DHT22;9652;49.014;12.052;2024-03-17T06:35:16;9.60;79.00
19039;DHT22;9652;49.014;12.052;2024-03-17T06:37:44;9.70;78.90
19039;DHT22;9652;49.014;12.052;2024-03-17T06:40:13;9.70;78.80
19039;DHT22;9652;49.014;12.052;2024-03-17T06:42:41;9.80;78.80
19039;DHT22;9652;49.014;12.052;2024-03-17T06:45:09;9.80;78.90
19039;DHT22;9652;49.014;12.052;2024-03-17T06:47:36;9.90;79.00
19039;DHT22;9652;49.014;12.052;2024-03-17T06:50:06;9.90;78.90
19039;DHT22;9652;49.014;12.052;2024-03-17T06:52:36;10.00;78.90
19039;DHT22;9652;49.014;12.052;2024-03-17T06:55:04;10.10;79.00
19039;DHT22;9652;49.014;12.052;2024-03-17T06:57:32;10.10;78.90
19039;DHT22;9652;49.014;12.052;2024-03-17T07:00:00;10.20;78.90
19039;DHT22;9652;49.014;12.052;2024-03-17T07:02:27;10.20;78.90
19039;DHT22;9652;49.014;12.052;2024-03-17T07:04:54;10.30;78.80
19039;DHT22;9652;49.014;12.052;2024-03-17T07:07:23;10.40;79.00
19039;DHT22;9652;49.014;12.052;2024-03-17T07:09:54;10.40;79.10
19039;DHT22;9652;49.014;12.052;2024-03-17T07:12:21;10.50;79.30
19039;DHT22;9652;49.014;12.052;2024-03-17T07:14:50;10.60;79.40
19039;DHT22;9652;49.014;12.052;2024-03-17T07:17:17;10.70;79.50
19039;DHT22;9652;49.014;12.052;2024-03-17T07:19:44;10.80;79.50
19039;DHT22;9652;49.014;12.052;2024-03-17T07:22:11;10.90;79.20
19039;DHT22;9652;49.014;12.052;2024-03-17T07:24:39;10.90;78.80
19039;DHT22;9652;49.014;12.052;2024-03-17T07:27:07;11.00;78.70
19039;DHT22;9652;49.014;12.052;2024-03-17T07:29:38;11.10;78.70
19039;DHT22;9652;49.014;12.052;2024-03-17T07:32:06;11.10;78.70
19039;DHT22;9652;49.014;12.052;2024-03-17T07:34:33;11.20;78.70
19039;DHT22;9652;49.014;12.052;2024-03-17T07:37:01;11.40;78.70
19039;DHT22;9652;49.014;12.052;2024-03-17T07:39:29;11.30;78.60
19039;DHT22;9652;49.014;12.052;2024-03-17T07:41:58;11.40;78.60
19039;DHT22;9652;49.014;12.052;2024-03-17T07:44:26;11.50;78.70
19039;DHT22;9652;49.014;12.052;2024-03-17T07:46:58;11.60;78.40
19039;DHT22;9652;49.014;12.052;2024-03-17T07:49:26;11.70;78.10
19039;DHT22;9652;49.014;12.052;2024-03-17T07:51:53;11.70;77.50
19039;DHT22;9652;49.014;12.052;2024-03-17T07:54:20;11.80;77.30
19039;DHT22;9652;49.014;12.052;2024-03-17T07:56:47;11.80;77.10
19039;DHT22;9652;49.014;12.052;2024-03-17T07:59:14;11.80;77.00
19039;DHT22;9652;49.014;12.052;2024-03-17T08:01:45;11.90;77.30
19039;DHT22;9652;49.014;12.052;2024-03-17T08:04:12;11.90;77.60
19039;DHT22;9652;49.014;12.052;2024-03-17T08:06:39;12.00;77.70
19039;DHT22;9652;49.014;12.052;2024-03-17T08:09:07;12.10;77.80
19039;DHT22;9652;49.014;12.052;2024-03-17T08:11:35;12.20;77.80
19039;DHT22;9652;49.014;12.052;2024-03-17T08:14:02;12.30;77.70
19039;DHT22;9652;49.014;12.052;2024-03-17T08:16:30;12.40;77.10
19039;DHT22;9652;49.014;12.052;2024-03-17T08:18:58;12.50;76.50
19039;DHT22;9652;49.014;12.052;2024-03-17T08:21:25;12.60;76.20
19039;DHT22;9652;49.014;12.052;2024-03-17T08:23:54;12.70;76.40
19039;DHT22;9652;49.014;12.052;2024-03-17T08:26:22;12.80;76.00
19039;DHT22;9652;49.014;12.052;2024-03-17T08:28:49;12.90;75.50
19039;DHT22;9652;49.014;12.052;2024-03-17T08:31:17;13.00;75.20
19039;DHT22;9652;49.014;12.052;2024-03-17T08:33:44;13.00;74.80
19039;DHT22;9652;49.014;12.052;2024-03-17T08:36:16;13.10;74.40
19039;DHT22;9652;49.014;12.052;2024-03-17T08:38:45;13.10;73.50
19039;DHT22;9652;49.014;12.052;2024-03-17T08:41:13;13.20;74.00
19039;DHT22;9652;49.014;12.052;2024-03-17T08:43:41;13.20;74.20
19039;DHT22;9652;49.014;12.052;2024-03-17T08:46:10;13.30;74.50
19039;DHT22;9652;49.014;12.052;2024-03-17T08:48:40;13.40;74.50
19039;DHT22;9652;49.014;12.052;2024-03-17T08:51:08;13.60;74.50
19039;DHT22;9652;49.014;12.052;2024-03-17T08:53:37;13.80;74.30
19039;DHT22;9652;49.014;12.052;2024-03-17T08:56:06;13.90;73.80
19039;DHT22;9652;49.014;12.052;2024-03-17T08:58:34;14.10;73.70
19039;DHT22;9652;49.014;12.052;2024-03-17T09:01:05;14.20;73.10
19039;DHT22;9652;49.014;12.052;2024-03-17T09:03:33;14.30;71.90
19039;DHT22;9652;49.014;12.052;2024-03-17T09:06:01;14.40;71.70
19039;DHT22;9652;49.014;12.052;2024-03-17T09:08:31;14.50;71.30
19039;DHT22;9652;49.014;12.052;2024-03-17T09:11:00;14.60;71.40
19039;DHT22;9652;49.014;12.052;2024-03-17T09:13:27;14.70;71.80
19039;DHT22;9652;49.014;12.052;2024-03-17T09:15:56;14.70;71.20
19039;DHT22;9652;49.014;12.052;2024-03-17T09:18:25;14.80;70.30
19039;DHT22;9652;49.014;12.052;2024-03-17T09:21:00;14.90;69.80
19039;DHT22;9652;49.014;12.052;2024-03-17T09:23:29;14.90;68.10
19039;DHT22;9652;49.014;12.052;2024-03-17T09:25:57;14.90;68.40
19039;DHT22;9652;49.014;12.052;2024-03-17T09:28:28;14.80;68.20
19039;DHT22;9652;49.014;12.052;2024-03-17T09:30:56;14.80;68.10
19039;DHT22;9652;49.014;12.052;2024-03-17T09:33:25;14.80;68.80
19039;DHT22;9652;49.014;12.052;2024-03-17T09:35:56;14.70;67.60
19039;DHT22;9652;49.014;12.052;2024-03-17T09:38:26;14.70;67.40
19039;DHT22;9652;49.014;12.052;2024-03-17T09:40:54;14.70;67.60
19039;DHT22;9652;49.014;12.052;2024-03-17T09:43:25;14.70;67.60
19039;DHT22;9652;49.014;12.052;2024-03-17T09:45:52;14.60;67.30
19039;DHT22;9652;49.014;12.052;2024-03-17T09:48:24;14.60;67.90
19039;DHT22;9652;49.014;12.052;2024-03-17T09:50:54;14.60;67.50
19039;DHT22;9652;49.014;12.052;2024-03-17T09:53:24;14.60;67.40
19039;DHT22;9652;49.014;12.052;2024-03-17T09:55:57;14.60;67.30
19039;DHT22;9652;49.014;12.052;2024-03-17T09:58:31;14.70;67.20
19039;DHT22;9652;49.014;12.052;2024-03-17T10:00:59;14.70;67.30
19039;DHT22;9652;49.014;12.052;2024-03-17T10:03:40;14.70;67.20
19039;DHT22;9652;49.014;12.052;2024-03-17T10:06:10;14.70;65.90
19039;DHT22;9652;49.014;12.052;2024-03-17T10:08:43;14.70;67.20
19039;DHT22;9652;49.014;12.052;2024-03-17T10:11:10;14.80;66.70
19039;DHT22;9652;49.014;12.052;2024-03-17T10:13:39;14.80;67.20
19039;DHT22;9652;49.014;12.052;2024-03-17T10:16:21;14.80;66.90
19039;DHT22;9652;49.014;12.052;2024-03-17T10:18:51;14.90;65.80
19039;DHT22;9652;49.014;12.052;2024-03-17T10:21:33;15.00;66.80
19039;DHT22;9652;49.014;12.052;2024-03-17T10:24:08;14.90;66.50
19039;DHT22;9652;49.014;12.052;2024-03-17T10:26:37;14.90;65.40
19039;DHT22;9652;49.014;12.052;2024-03-17T10:29:20;14.90;66.20
19039;DHT22;9652;49.014;12.052;2024-03-17T10:31:50;14.90;64.90
19039;DHT22;9652;49.014;12.052;2024-03-17T10:34:19;15.00;66.40
19039;DHT22;9652;49.014;12.052;2024-03-17T10:36:50;15.00;65.90
19039;DHT22;9652;49.014;12.052;2024-03-17T10:39:25;15.00;65.90
19039;DHT22;9652;49.014;12.052;2024-03-17T10:41:57;15.00;65.20
19039;DHT22;9652;49.014;12.052;2024-03-17T10:44:27;15.10;66.00
19039;DHT22;9652;49.014;12.052;2024-03-17T10:46:56;15.20;66.10
19039;DHT22;9652;49.014;12.052;2024-03-17T10:49:29;15.20;66.30
19039;DHT22;9652;49.014;12.052;2024-03-17T10:51:59;15.30;65.30
19039;DHT22;9652;49.014;12.052;2024-03-17T10:54:28;15.30;65.60
19039;DHT22;9652;49.014;12.052;2024-03-17T10:56:56;15.40;65.60
19039;DHT22;9652;49.014;12.052;2024-03-17T10:59:38;15.50;65.60
19039;DHT22;9652;49.014;12.052;2024-03-17T11:02:20;15.50;64.70
19039;DHT22;9652;49.014;12.052;2024-03-17T11:04:52;15.60;64.30
19039;DHT22;9652;49.014;12.052;2024-03-17T11:07:21;15.70;65.20
19039;DHT22;9652;49.014;12.052;2024-03-17T11:09:50;15.70;65.00
19039;DHT22;9652;49.014;12.052;2024-03-17T11:12:41;15.80;65.00
19039;DHT22;9652;49.014;12.052;2024-03-17T11:15:36;15.80;63.60
19039;DHT22;9652;49.014;12.052;2024-03-17T11:21:22;16.10;64.10
19039;DHT22;9652;49.014;12.052;2024-03-17T11:24:02;16.30;64.70
19039;DHT22;9652;49.014;12.052;2024-03-17T11:26:32;16.40;64.50
19039;DHT22;9652;49.014;12.052;2024-03-17T11:29:01;16.60;65.50
19039;DHT22;9652;49.014;12.052;2024-03-17T11:31:41;16.60;65.20
19039;DHT22;9652;49.014;12.052;2024-03-17T11:34:35;16.80;64.60
19039;DHT22;9652;49.014;12.052;2024-03-17T11:37:05;17.00;62.90
19039;DHT22;9652;49.014;12.052;2024-03-17T11:39:55;17.10;64.90
19039;DHT22;9652;49.014;12.052;2024-03-17T11:42:23;17.20;64.80
19039;DHT22;9652;49.014;12.052;2024-03-17T11:45:05;17.50;65.30
19039;DHT22;9652;49.014;12.052;2024-03-17T11:47:39;17.40;64.30
19039;DHT22;9652;49.014;12.052;2024-03-17T11:50:08;17.60;65.10
19039;DHT22;9652;49.014;12.052;2024-03-17T11:52:37;17.80;65.80
19039;DHT22;9652;49.014;12.052;2024-03-17T11:55:15;17.80;65.90
19039;DHT22;9652;49.014;12.052;2024-03-17T11:57:44;18.30;64.40
19039;DHT22;9652;49.014;12.052;2024-03-17T12:00:20;18.50;65.60
19039;DHT22;9652;49.014;12.052;2024-03-17T12:02:52;19.20;64.40
19039;DHT22;9652;49.014;12.052;2024-03-17T12:05:18;18.90;63.80
19039;DHT22;9652;49.014;12.052;2024-03-17T12:07:46;19.00;63.10
19039;DHT22;9652;49.014;12.052;2024-03-17T12:10:13;19.20;62.40
19039;DHT22;9652;49.014;12.052;2024-03-17T12:12:40;19.20;61.90
19039;DHT22;9652;49.014;12.052;2024-03-17T12:15:17;19.20;61.50
19039;DHT22;9652;49.014;12.052;2024-03-17T12:17:53;19.30;59.40
19039;DHT22;9652;49.014;12.052;2024-03-17T12:20:20;19.20;59.20
19039;DHT22;9652;49.014;12.052;2024-03-17T12:22:49;19.20;59.80
19039;DHT22;9652;49.014;12.052;2024-03-17T12:25:18;19.10;59.60
19039;DHT22;9652;49.014;12.052;2024-03-17T12:27:48;19.00;59.10
19039;DHT22;9652;49.014;12.052;2024-03-17T12:30:15;18.90;59.30
19039;DHT22;9652;49.014;12.052;2024-03-17T12:32:44;18.90;59.50
19039;DHT22;9652;49.014;12.052;2024-03-17T12:35:16;18.80;59.40
19039;DHT22;9652;49.014;12.052;2024-03-17T12:37:44;18.80;58.80
19039;DHT22;9652;49.014;12.052;2024-03-17T12:40:21;18.80;59.60
19039;DHT22;9652;49.014;12.052;2024-03-17T12:42:50;18.80;58.60
19039;DHT22;9652;49.014;12.052;2024-03-17T12:45:20;18.90;59.90
19039;DHT22;9652;49.014;12.052;2024-03-17T12:47:49;19.00;59.20
19039;DHT22;9652;49.014;12.052;2024-03-17T12:50:18;19.00;59.60
19039;DHT22;9652;49.014;12.052;2024-03-17T12:52:52;19.10;59.40
19039;DHT22;9652;49.014;12.052;2024-03-17T12:55:21;19.20;59.30
19039;DHT22;9652;49.014;12.052;2024-03-17T12:58:08;19.20;59.70
19039;DHT22;9652;49.014;12.052;2024-03-17T13:00:58;19.30;59.80
19039;DHT22;9652;49.014;12.052;2024-03-17T13:03:28;19.40;59.30
19039;DHT22;9652;49.014;12.052;2024-03-17T13:05:58;19.60;59.80
19039;DHT22;9652;49.014;12.052;2024-03-17T13:08:26;19.60;59.30
19039;DHT22;9652;49.014;12.052;2024-03-17T13:10:54;19.80;59.20
19039;DHT22;9652;49.014;12.052;2024-03-17T13:13:21;19.80;58.70
19039;DHT22;9652;49.014;12.052;2024-03-17T13:15:48;19.80;58.20
19039;DHT22;9652;49.014;12.052;2024-03-17T13:18:18;19.90;58.30
19039;DHT22;9652;49.014;12.052;2024-03-17T13:20:46;19.90;58.30
19039;DHT22;9652;49.014;12.052;2024-03-17T13:23:16;19.90;58.40
19039;DHT22;9652;49.014;12.052;2024-03-17T13:25:44;20.00;58.10
19039;DHT22;9652;49.014;12.052;2024-03-17T13:28:11;20.10;58.10
19039;DHT22;9652;49.014;12.052;2024-03-17T13:30:38;20.10;57.80
19039;DHT22;9652;49.014;12.052;2024-03-17T13:33:06;20.10;57.70
19039;DHT22;9652;49.014;12.052;2024-03-17T13:35:36;20.10;57.50
19039;DHT22;9652;49.014;12.052;2024-03-17T13:38:05;20.10;57.30
19039;DHT22;9652;49.014;12.052;2024-03-17T13:40:35;20.20;57.00
19039;DHT22;9652;49.014;12.052;2024-03-17T13:43:04;20.20;56.50
19039;DHT22;9652;49.014;12.052;2024-03-17T13:45:38;20.10;56.70
19039;DHT22;9652;49.014;12.052;2024-03-17T13:48:07;20.10;55.70
19039;DHT22;9652;49.014;12.052;2024-03-17T13:50:36;20.10;56.50
19039;DHT22;9652;49.014;12.052;2024-03-17T13:53:04;19.90;56.40
19039;DHT22;9652;49.014;12.052;2024-03-17T13:55:32;20.00;56.40
19039;DHT22;9652;49.014;12.052;2024-03-17T13:58:02;19.90;56.50
19039;DHT22;9652;49.014;12.052;2024-03-17T14:00:30;19.90;56.30
19039;DHT22;9652;49.014;12.052;2024-03-17T14:03:01;19.90;56.40
19039;DHT22;9652;49.014;12.052;2024-03-17T14:05:29;19.80;56.30
19039;DHT22;9652;49.014;12.052;2024-03-17T14:07:59;19.80;56.30
19039;DHT22;9652;49.014;12.052;2024-03-17T14:10:27;19.80;56.40
19039;DHT22;9652;49.014;12.052;2024-03-17T14:12:55;19.80;56.50
19039;DHT22;9652;49.014;12.052;2024-03-17T14:15:24;19.80;56.50
19039;DHT22;9652;49.014;12.052;2024-03-17T14:17:51;19.80;56.10
19039;DHT22;9652;49.014;12.052;2024-03-17T14:20:19;19.90;56.60
19039;DHT22;9652;49.014;12.052;2024-03-17T14:22:47;19.90;56.70
19039;DHT22;9652;49.014;12.052;2024-03-17T14:25:19;20.00;56.80
19039;DHT22;9652;49.014;12.052;2024-03-17T14:27:47;20.10;56.70
19039;DHT22;9652;49.014;12.052;2024-03-17T14:30:16;20.20;56.60
19039;DHT22;9652;49.014;12.052;2024-03-17T14:32:47;20.20;56.20
19039;DHT22;9652;49.014;12.052;2024-03-17T14:35:16;20.30;55.90
19039;DHT22;9652;49.014;12.052;2024-03-17T14:37:46;20.30;56.50
19039;DHT22;9652;49.014;12.052;2024-03-17T14:40:15;20.40;55.70
19039;DHT22;9652;49.014;12.052;2024-03-17T14:42:48;20.30;55.30
19039;DHT22;9652;49.014;12.052;2024-03-17T14:45:16;20.30;55.10
19039;DHT22;9652;49.014;12.052;2024-03-17T14:47:44;20.30;55.00
19039;DHT22;9652;49.014;12.052;2024-03-17T14:50:12;20.20;54.90
19039;DHT22;9652;49.014;12.052;2024-03-17T14:52:39;20.10;54.60
19039;DHT22;9652;49.014;12.052;2024-03-17T14:55:08;20.10;54.50
19039;DHT22;9652;49.014;12.052;2024-03-17T14:57:36;19.90;54.30
19039;DHT22;9652;49.014;12.052;2024-03-17T15:00:05;19.80;54.10
19039;DHT22;9652;49.014;12.052;2024-03-17T15:02:39;19.70;54.20
19039;DHT22;9652;49.014;12.052;2024-03-17T15:05:08;19.60;54.30
19039;DHT22;9652;49.014;12.052;2024-03-17T15:07:35;19.50;53.90
19039;DHT22;9652;49.014;12.052;2024-03-17T15:10:04;19.40;54.00
19039;DHT22;9652;49.014;12.052;2024-03-17T15:12:31;19.30;54.10
19039;DHT22;9652;49.014;12.052;2024-03-17T15:14:59;19.20;54.20
19039;DHT22;9652;49.014;12.052;2024-03-17T15:17:26;19.10;54.40
19039;DHT22;9652;49.014;12.052;2024-03-17T15:19:53;19.00;54.50
19039;DHT22;9652;49.014;12.052;2024-03-17T15:22:22;19.00;54.70
19039;DHT22;9652;49.014;12.052;2024-03-17T15:24:49;18.90;54.70
19039;DHT22;9652;49.014;12.052;2024-03-17T15:27:16;18.90;55.00
19039;DHT22;9652;49.014;12.052;2024-03-17T15:29:43;18.80;55.00
19039;DHT22;9652;49.014;12.052;2024-03-17T15:32:11;18.80;55.00
19039;DHT22;9652;49.014;12.052;2024-03-17T15:34:39;18.80;55.00
19039;DHT22;9652;49.014;12.052;2024-03-17T15:37:07;18.70;54.80
19039;DHT22;9652;49.014;12.052;2024-03-17T15:39:35;18.70;54.90
19039;DHT22;9652;49.014;12.052;2024-03-17T15:42:03;18.60;54.90
19039;DHT22;9652;49.014;12.052;2024-03-17T15:44:31;18.50;55.10
19039;DHT22;9652;49.014;12.052;2024-03-17T15:46:58;18.60;55.10
19039;DHT22;9652;49.014;12.052;2024-03-17T15:49:25;18.50;54.90
19039;DHT22;9652;49.014;12.052;2024-03-17T15:51:53;18.40;54.80
19039;DHT22;9652;49.014;12.052;2024-03-17T15:54:21;18.30;54.80